MSC Lea — 9HA2639 — position and weather

sailwx.info

Track history (hours):
 
Tides and Currents Weather Stations Pressure Air Temp Water Temp Dewpoint Dewpoint Depression Visibility Wind Speed Wind Dir Waves Ship Positions

MSC Lea

Last reported at 2015-Jan-26 15:33 UTC. Time now 2015-Jan-31 13:14 UTC.
Position N 32°26' E 034°40'.

Length 217 m; draft 9.1 m.

Type: Ship (hazmat cat A). MMSI: 215101000.

Date/timePositionNaut miles runAvg speedWind from/ knotsBaromVisibWave heightAir tempDewpointWater temp
2015-Jan-26 15:33N 32°26' E 034°40'1514.4
2015-Jan-26 14:33N 32°40' E 034°44'1313.5
2015-Jan-26 13:33N 32°52' E 034°51'7 0.5
2015-Jan-25 22:11N 32°52' E 034°60'0 0.0
2015-Jan-25 21:12N 32°52' E 034°60'0 0.0
2015-Jan-25 20:21N 32°52' E 034°60'12 2.1
2015-Jan-25 14:33N 32°56' E 034°46'1414.1
2015-Jan-25 13:33N 32°58' E 034°29'1414.5
2015-Jan-25 12:33N 33°01' E 034°12'1613.6
2015-Jan-25 11:25N 33°04' E 033°54'1513.5
2015-Jan-25 10:20N 33°08' E 033°37'1113.7
2015-Jan-25 09:32N 33°11' E 033°25'1313.4
2015-Jan-25 08:33N 33°17' E 033°11'  
Track history (hours):
 
Tides and Currents Weather Stations Pressure Air Temp Water Temp Dewpoint Dewpoint Depression Visibility Wind Speed Wind Dir Waves Ship Positions

MSC Lea

Last reported at 2015-Jan-26 15:33 UTC. Time now 2015-Jan-31 13:14 UTC.
Position N 32°26' E 034°40'.

Length 217 m; draft 9.1 m.

Type: Ship (hazmat cat A). MMSI: 215101000.

Date/timePositionNaut miles runAvg speedWind from/ knotsBaromVisibWave heightAir tempDewpointWater temp
2015-Jan-26 15:33N 32°26' E 034°40'1514.4
2015-Jan-26 14:33N 32°40' E 034°44'1313.5
2015-Jan-26 13:33N 32°52' E 034°51'7 0.5
2015-Jan-25 22:11N 32°52' E 034°60'0 0.0
2015-Jan-25 21:12N 32°52' E 034°60'0 0.0
2015-Jan-25 20:21N 32°52' E 034°60'12 2.1
2015-Jan-25 14:33N 32°56' E 034°46'1414.1
2015-Jan-25 13:33N 32°58' E 034°29'1414.5
2015-Jan-25 12:33N 33°01' E 034°12'1613.6
2015-Jan-25 11:25N 33°04' E 033°54'1513.5
2015-Jan-25 10:20N 33°08' E 033°37'1113.7
2015-Jan-25 09:32N 33°11' E 033°25'1313.4
2015-Jan-25 08:33N 33°17' E 033°11'  

Dump ship's entire track history